CES5336 ZPPP-ZPLJ
Flight info
| Callsign | CES5336 |
|---|---|
| Flight time | N/A |
| Altitude | 27600 |
| Route | GUL9Y GULOT W146 BUBSU/K0891S0890 W162 CEH |
| Aircraft | A320/M-SDE3FGHIRWY/LB1 |
Departure
| Time | N/A |
|---|---|
| Airport | Kunming Changshui International Airport (ZPPP) |
Arrival
| Time | 2026-04-14 08:02 |
|---|---|
| Airport | Lijiang Sanyi International Airport (ZPLJ) |
| Time | Latitude | Longitude | Altitude | Speed | Heading |
|---|---|---|---|---|---|
| 2026-04-14 07:37 | 24.92554 | 100.48273 | 27504 ft | 419 kts | 284° |
| 2026-04-14 07:38 | 24.93396 | 100.45198 | 27498 ft | 418 kts | 284° |
| 2026-04-14 07:38 | 24.94234 | 100.42133 | 27500 ft | 418 kts | 284° |
| 2026-04-14 07:38 | 24.95076 | 100.39059 | 27509 ft | 419 kts | 284° |
| 2026-04-14 07:38 | 24.95917 | 100.35989 | 27503 ft | 419 kts | 284° |
| 2026-04-14 07:39 | 24.96758 | 100.32917 | 27512 ft | 419 kts | 285° |
| 2026-04-14 07:39 | 24.97927 | 100.29957 | 27303 ft | 426 kts | 298° |
| 2026-04-14 07:39 | 24.99851 | 100.27447 | 26769 ft | 435 kts | 315° |
| 2026-04-14 07:39 | 25.02443 | 100.25650 | 26227 ft | 449 kts | 332° |
| 2026-04-14 07:40 | 25.05503 | 100.24761 | 25674 ft | 464 kts | 349° |
| 2026-04-14 07:40 | 25.08771 | 100.24875 | 25140 ft | 477 kts | 1° |
| 2026-04-14 07:40 | 25.12069 | 100.25297 | 24614 ft | 473 kts | 1° |
| 2026-04-14 07:40 | 25.15277 | 100.25738 | 24035 ft | 456 kts | 2° |
| 2026-04-14 07:41 | 25.18372 | 100.26178 | 23443 ft | 443 kts | 2° |
| 2026-04-14 07:41 | 25.21394 | 100.26602 | 22744 ft | 435 kts | 2° |
| 2026-04-14 07:41 | 25.24352 | 100.27007 | 22062 ft | 430 kts | 1° |
| 2026-04-14 07:41 | 25.27305 | 100.27402 | 21395 ft | 425 kts | 1° |
| 2026-04-14 07:42 | 25.30232 | 100.27787 | 20758 ft | 423 kts | 1° |
| 2026-04-14 07:42 | 25.33152 | 100.28169 | 20113 ft | 423 kts | 1° |
| 2026-04-14 07:42 | 25.36075 | 100.28554 | 19482 ft | 422 kts | 1° |
| 2026-04-14 07:42 | 25.38973 | 100.28939 | 18866 ft | 415 kts | 1° |
| 2026-04-14 07:43 | 25.41800 | 100.29323 | 18255 ft | 402 kts | 1° |
| 2026-04-14 07:43 | 25.44531 | 100.29697 | 17572 ft | 391 kts | 1° |
| 2026-04-14 07:43 | 25.47198 | 100.30060 | 16897 ft | 381 kts | 1° |
| 2026-04-14 07:43 | 25.49807 | 100.30410 | 16181 ft | 374 kts | 1° |
| 2026-04-14 07:44 | 25.52374 | 100.30751 | 15479 ft | 369 kts | 1° |
| 2026-04-14 07:44 | 25.54900 | 100.31086 | 14773 ft | 362 kts | 1° |
| 2026-04-14 07:44 | 25.57372 | 100.31414 | 14603 ft | 354 kts | 1° |
| 2026-04-14 07:44 | 25.59838 | 100.31740 | 14747 ft | 358 kts | 2° |
| 2026-04-14 07:45 | 25.62320 | 100.32069 | 14778 ft | 360 kts | 2° |
| 2026-04-14 07:45 | 25.64803 | 100.32325 | 14755 ft | 357 kts | 358° |
| 2026-04-14 07:45 | 25.67283 | 100.32342 | 14756 ft | 356 kts | 355° |
| 2026-04-14 07:45 | 25.69753 | 100.32340 | 14756 ft | 357 kts | 355° |
| 2026-04-14 07:46 | 25.72316 | 100.32338 | 14757 ft | 380 kts | 356° |
| 2026-04-14 07:46 | 25.75032 | 100.32333 | 14757 ft | 400 kts | 356° |
| 2026-04-14 07:46 | 25.77869 | 100.32333 | 14736 ft | 412 kts | 356° |
| 2026-04-14 07:46 | 25.80751 | 100.32343 | 14737 ft | 416 kts | 356° |
| 2026-04-14 07:47 | 25.83651 | 100.32357 | 14737 ft | 417 kts | 356° |
| 2026-04-14 07:47 | 25.86553 | 100.32366 | 14735 ft | 418 kts | 356° |
| 2026-04-14 07:47 | 25.89461 | 100.32375 | 14724 ft | 418 kts | 356° |
| 2026-04-14 07:47 | 25.92366 | 100.32383 | 14716 ft | 418 kts | 356° |
| 2026-04-14 07:48 | 25.95277 | 100.32390 | 14711 ft | 418 kts | 356° |
| 2026-04-14 07:48 | 25.98160 | 100.32394 | 14716 ft | 419 kts | 356° |
| 2026-04-14 07:48 | 26.01073 | 100.32397 | 14715 ft | 418 kts | 356° |
| 2026-04-14 07:48 | 26.03926 | 100.32405 | 14686 ft | 395 kts | 356° |
| 2026-04-14 07:49 | 26.06595 | 100.32421 | 14693 ft | 365 kts | 356° |
| 2026-04-14 07:49 | 26.09006 | 100.32436 | 14693 ft | 338 kts | 355° |
| 2026-04-14 07:49 | 26.11278 | 100.32444 | 14692 ft | 314 kts | 355° |
| 2026-04-14 07:49 | 26.13384 | 100.32447 | 14680 ft | 291 kts | 354° |
| 2026-04-14 07:50 | 26.15357 | 100.32447 | 14684 ft | 277 kts | 354° |
| 2026-04-14 07:50 | 26.17236 | 100.32364 | 14600 ft | 264 kts | 343° |
| 2026-04-14 07:50 | 26.18910 | 100.31677 | 14373 ft | 252 kts | 322° |
| 2026-04-14 07:50 | 26.20211 | 100.30442 | 14154 ft | 242 kts | 303° |
| 2026-04-14 07:51 | 26.21048 | 100.28859 | 13915 ft | 235 kts | 287° |
| 2026-04-14 07:51 | 26.21524 | 100.27139 | 13801 ft | 231 kts | 284° |
| 2026-04-14 07:51 | 26.21995 | 100.25420 | 13812 ft | 233 kts | 284° |
| 2026-04-14 07:51 | 26.22472 | 100.23692 | 13820 ft | 234 kts | 284° |
| 2026-04-14 07:52 | 26.22951 | 100.21964 | 13816 ft | 233 kts | 284° |
| 2026-04-14 07:52 | 26.23428 | 100.20244 | 13826 ft | 232 kts | 284° |
| 2026-04-14 07:52 | 26.23895 | 100.18559 | 13817 ft | 222 kts | 284° |
| 2026-04-14 07:52 | 26.24338 | 100.16967 | 13806 ft | 208 kts | 283° |
| 2026-04-14 07:53 | 26.24755 | 100.15472 | 13808 ft | 197 kts | 283° |
| 2026-04-14 07:53 | 26.25150 | 100.14038 | 13806 ft | 192 kts | 284° |
| 2026-04-14 07:53 | 26.25622 | 100.12621 | 13858 ft | 202 kts | 297° |
| 2026-04-14 07:53 | 26.26613 | 100.11543 | 13836 ft | 199 kts | 324° |
| 2026-04-14 07:54 | 26.27971 | 100.11129 | 13682 ft | 208 kts | 353° |
| 2026-04-14 07:54 | 26.29416 | 100.11463 | 13436 ft | 217 kts | 7° |
| 2026-04-14 07:54 | 26.30855 | 100.11950 | 13331 ft | 214 kts | 8° |
| 2026-04-14 07:54 | 26.32281 | 100.12434 | 13354 ft | 213 kts | 8° |
| 2026-04-14 07:55 | 26.33656 | 100.12902 | 13348 ft | 200 kts | 9° |
| 2026-04-14 07:55 | 26.34956 | 100.13344 | 13214 ft | 194 kts | 6° |
| 2026-04-14 07:55 | 26.36230 | 100.13774 | 12969 ft | 191 kts | 5° |
| 2026-04-14 07:55 | 26.37492 | 100.14201 | 12731 ft | 187 kts | 4° |
| 2026-04-14 07:56 | 26.38741 | 100.14624 | 12488 ft | 188 kts | 2° |
| 2026-04-14 07:56 | 26.39999 | 100.15049 | 12241 ft | 188 kts | 6° |
| 2026-04-14 07:56 | 26.41229 | 100.15470 | 11983 ft | 181 kts | 6° |
| 2026-04-14 07:56 | 26.42423 | 100.15875 | 11766 ft | 179 kts | 7° |
| 2026-04-14 07:57 | 26.43628 | 100.16281 | 11544 ft | 182 kts | 5° |
| 2026-04-14 07:57 | 26.44852 | 100.16695 | 11314 ft | 185 kts | 5° |
| 2026-04-14 07:57 | 26.46090 | 100.17116 | 11070 ft | 186 kts | 4° |
| 2026-04-14 07:57 | 26.47333 | 100.17539 | 10831 ft | 186 kts | 4° |
| 2026-04-14 07:58 | 26.48562 | 100.17958 | 10594 ft | 184 kts | 4° |
| 2026-04-14 07:58 | 26.49374 | 100.18234 | 10448 ft | 184 kts | 5° |
| 2026-04-14 07:58 | 26.49789 | 100.18375 | 10373 ft | 184 kts | 5° |
| 2026-04-14 07:58 | 26.51014 | 100.18791 | 10160 ft | 183 kts | 8° |
| 2026-04-14 07:59 | 26.52223 | 100.19203 | 9931 ft | 180 kts | 6° |
| 2026-04-14 07:59 | 26.55540 | 100.20329 | 9443 ft | 180 kts | 9° |
| 2026-04-14 07:59 | 26.56722 | 100.20731 | 9067 ft | 181 kts | 9° |
| 2026-04-14 08:00 | 26.57931 | 100.21143 | 8828 ft | 182 kts | 10° |
| 2026-04-14 08:00 | 26.59141 | 100.21555 | 8601 ft | 181 kts | 9° |
| 2026-04-14 08:00 | 26.60348 | 100.21966 | 8419 ft | 182 kts | 7° |
| 2026-04-14 08:00 | 26.61554 | 100.22377 | 8256 ft | 180 kts | 8° |
| 2026-04-14 08:01 | 26.62746 | 100.22784 | 8077 ft | 178 kts | 8° |
| 2026-04-14 08:01 | 26.63929 | 100.23181 | 7842 ft | 176 kts | 9° |
| 2026-04-14 08:01 | 26.65087 | 100.23589 | 7607 ft | 173 kts | 9° |
| 2026-04-14 08:01 | 26.66237 | 100.23982 | 7354 ft | 173 kts | 11° |
| 2026-04-14 08:02 | 26.67336 | 100.24336 | 7292 ft | 142 kts | 16° |
| 2026-04-14 08:02 | 26.68008 | 100.24573 | 7294 ft | 77 kts | 17° |
| 2026-04-14 08:02 | 26.68378 | 100.24698 | 7295 ft | 41 kts | 16° |
| 2026-04-14 08:02 | 26.68489 | 100.24742 | 7296 ft | 0 kts | 19° |
| 2026-04-14 08:03 | 26.68531 | 100.24853 | 7293 ft | 11 kts | 106° |
| 2026-04-14 08:04 | 26.68491 | 100.24919 | 7295 ft | 11 kts | 163° |
| 2026-04-14 08:04 | 26.68420 | 100.24906 | 7295 ft | 11 kts | 198° |
| 2026-04-14 08:04 | 26.68345 | 100.24880 | 7295 ft | 12 kts | 197° |
| 2026-04-14 08:04 | 26.68265 | 100.24851 | 7295 ft | 13 kts | 197° |
| 2026-04-14 08:05 | 26.68172 | 100.24820 | 7293 ft | 17 kts | 197° |
| 2026-04-14 08:05 | 26.68047 | 100.24776 | 7293 ft | 19 kts | 197° |
| 2026-04-14 08:05 | 26.67919 | 100.24731 | 7293 ft | 20 kts | 198° |
| 2026-04-14 08:05 | 26.67787 | 100.24686 | 7293 ft | 20 kts | 196° |
| 2026-04-14 08:06 | 26.67654 | 100.24642 | 7293 ft | 20 kts | 197° |
| 2026-04-14 08:06 | 26.67545 | 100.24605 | 7293 ft | 16 kts | 197° |
| 2026-04-14 08:06 | 26.67466 | 100.24578 | 7293 ft | 9 kts | 196° |
| 2026-04-14 08:06 | 26.67400 | 100.24557 | 7293 ft | 10 kts | 196° |
| 2026-04-14 08:07 | 26.67337 | 100.24536 | 7295 ft | 8 kts | 196° |
| 2026-04-14 08:07 | 26.67296 | 100.24522 | 7295 ft | 6 kts | 196° |
| 2026-04-14 08:07 | 26.67260 | 100.24533 | 7295 ft | 2 kts | 135° |
| 2026-04-14 08:07 | 26.67256 | 100.24547 | 7295 ft | 2 kts | 103° |
| 2026-04-14 08:08 | 26.67251 | 100.24567 | 7295 ft | 4 kts | 105° |
| 2026-04-14 08:08 | 26.67243 | 100.24597 | 7294 ft | 3 kts | 106° |
| 2026-04-14 08:08 | 26.67241 | 100.24606 | 7295 ft | 1 kts | 106° |
| 2026-04-14 08:08 | 26.67241 | 100.24607 | 7295 ft | 0 kts | 106° |
| 2026-04-14 08:09 | 26.67241 | 100.24606 | 7295 ft | 0 kts | 106° |
| 2026-04-14 08:22 | 26.67241 | 100.24605 | 7294 ft | 0 kts | 106° |
| 2026-04-14 08:36 | 26.67241 | 100.24604 | 7300 ft | 0 kts | 106° |
| 2026-04-14 08:45 | 26.67242 | 100.24604 | 7299 ft | 0 kts | 106° |
| 2026-04-14 08:50 | 26.67242 | 100.24603 | 7299 ft | 0 kts | 106° |